Terminal Aerodrome Forecast
Issued by NWS

Home | Current Version | Previous Version | Text Only | Print | Product List | Glossary On
Versions: 1 2 3 4 5 6 7 8 9 10 11 12 13 14
000
FTUS45 KRIW 050541
TAFCOD
TAF
KCOD 050541Z 0506/0606 01012G18KT 1 1/2SM -SN BKN008 OVC015
     FM050800 02009KT 5SM -SN BKN020 OVC040
     FM051300 29012G18KT P6SM SCT040 BKN080
     FM060200 25012KT P6SM SCT080
      AMD LTD TO CLD VIS AND WIND=

USA.gov is the U.S. government's official web portal to all federal, state and local government web resources and services.